Time;durP1;ratioP1;P1;durP2;ratioP2;P2;SDS_P1;SDS_P2;PMS_P1;PMS_P2;Temp;Humidity;BMP_temperature;BMP_pressure;BME280_temperature;BME280_humidity;BME280_pressure;Samples;Min_cycle;Max_cycle;Signal;HPM_P1;HPM_P2
2023/10/15 00:01:30;;;;;;;439.23;175.53;;;;;;;;;;5003662;28;23230;-49
2023/10/15 00:03:57;;;;;;;491.43;200.87;;;;;;;;;;4995351;28;20262;-49
2023/10/15 00:06:23;;;;;;;472.30;190.33;;;;;;;;;;5007453;28;20181;-49
2023/10/15 00:08:50;;;;;;;509.97;211.83;;;;;;;;;;5009104;28;20211;-49
2023/10/15 00:11:21;;;;;;;469.87;188.33;;;;;;;;;;5004856;28;20669;-49
2023/10/15 00:13:47;;;;;;;458.70;189.10;;;;;;;;;;4996734;28;20300;-49
2023/10/15 00:16:19;;;;;;;401.33;158.93;;;;;;;;;;5004497;28;20637;-49
2023/10/15 00:18:45;;;;;;;451.53;184.57;;;;;;;;;;5004288;28;20246;-48
2023/10/15 00:21:12;;;;;;;458.13;184.17;;;;;;;;;;5006227;28;20188;-48
2023/10/15 00:23:38;;;;;;;460.27;180.60;;;;;;;;;;5004830;28;20188;-48
2023/10/15 00:26:04;;;;;;;467.70;187.60;;;;;;;;;;5003045;28;20195;-48
2023/10/15 00:28:30;;;;;;;459.57;180.03;;;;;;;;;;4995475;28;20188;-49
2023/10/15 00:30:56;;;;;;;471.07;190.10;;;;;;;;;;5003408;28;20606;-49
2023/10/15 00:33:22;;;;;;;495.23;204.60;;;;;;;;;;5001248;28;20193;-49
2023/10/15 00:35:53;;;;;;;547.13;230.87;;;;;;;;;;5003053;28;20697;-49
2023/10/15 00:38:19;;;;;;;430.47;172.13;;;;;;;;;;5008406;28;20621;-48
2023/10/15 00:40:46;;;;;;;477.77;195.83;;;;;;;;;;5005943;28;20188;-48
2023/10/15 00:43:17;;;;;;;432.93;173.57;;;;;;;;;;5002416;28;20275;-49
2023/10/15 00:45:46;;;;;;;451.40;181.10;;;;;;;;;;5007236;28;20191;-49
2023/10/15 00:48:18;;;;;;;497.53;205.00;;;;;;;;;;5006310;28;20282;-48
2023/10/15 00:50:44;;;;;;;481.70;196.83;;;;;;;;;;5004625;28;20251;-49
2023/10/15 00:53:24;;;;;;;447.70;179.10;;;;;;;;;;5001818;28;20279;-48
2023/10/15 00:55:54;;;;;;;471.57;191.23;;;;;;;;;;4999458;28;20192;-49
2023/10/15 01:04:06;;;;;;;461.67;190.47;;;;;;;;;;5004277;28;20238;-49
2023/10/15 01:06:37;;;;;;;427.03;166.43;;;;;;;;;;5004070;28;20287;-48
2023/10/15 01:09:09;;;;;;;495.23;202.60;;;;;;;;;;4997222;28;21013;-49
2023/10/15 01:11:38;;;;;;;465.23;183.20;;;;;;;;;;5003995;28;20235;-48
2023/10/15 01:14:05;;;;;;;477.83;199.03;;;;;;;;;;5000273;28;20639;-48
2023/10/15 01:16:35;;;;;;;406.73;158.03;;;;;;;;;;5000557;28;20196;-48
2023/10/15 01:19:31;;;;;;;503.83;210.00;;;;;;;;;;5003786;28;21787;-49
2023/10/15 01:21:53;;;;;;;457.23;184.33;;;;;;;;;;4999189;28;20203;-49
2023/10/15 01:24:19;;;;;;;478.20;189.53;;;;;;;;;;5002578;28;20178;-49
2023/10/15 01:26:59;;;;;;;497.57;207.93;;;;;;;;;;5007370;28;20200;-48
2023/10/15 01:29:25;;;;;;;451.53;179.83;;;;;;;;;;5002892;28;20208;-49
2023/10/15 01:31:52;;;;;;;509.20;211.97;;;;;;;;;;4995900;28;20219;-49
2023/10/15 01:34:21;;;;;;;463.23;184.77;;;;;;;;;;5007212;28;20188;-49
2023/10/15 01:36:48;;;;;;;473.70;195.57;;;;;;;;;;4997791;28;20181;-49
2023/10/15 01:39:21;;;;;;;433.67;169.53;;;;;;;;;;5004216;28;20273;-50
2023/10/15 01:41:50;;;;;;;493.63;204.90;;;;;;;;;;4997807;28;20236;-50
2023/10/15 01:44:19;;;;;;;460.37;181.50;;;;;;;;;;5002091;28;20218;-47
2023/10/15 01:46:48;;;;;;;466.03;188.10;;;;;;;;;;5005338;28;20656;-47
2023/10/15 01:49:30;;;;;;;473.63;194.93;;;;;;;;;;5010027;28;20204;-48
2023/10/15 01:52:05;;;;;;;481.60;194.83;;;;;;;;;;5004773;28;20629;-48
2023/10/15 01:54:31;;;;;;;444.07;169.40;;;;;;;;;;5009807;28;20195;-47
2023/10/15 01:56:57;;;;;;;492.73;198.67;;;;;;;;;;5007491;28;21665;-47
2023/10/15 01:59:23;;;;;;;467.90;189.30;;;;;;;;;;5004768;28;20679;-48
2023/10/15 02:01:49;;;;;;;477.60;193.67;;;;;;;;;;5008714;28;20314;-49
2023/10/15 02:04:29;;;;;;;492.13;207.70;;;;;;;;;;5004508;28;20204;-48
2023/10/15 02:06:55;;;;;;;478.83;195.93;;;;;;;;;;5002959;28;20176;-48
2023/10/15 02:09:22;;;;;;;445.70;174.30;;;;;;;;;;5009260;28;20208;-48
2023/10/15 02:11:48;;;;;;;452.20;179.70;;;;;;;;;;5012243;28;20632;-48
2023/10/15 02:14:21;;;;;;;476.17;197.27;;;;;;;;;;5008246;28;20187;-49
2023/10/15 02:16:50;;;;;;;452.67;178.60;;;;;;;;;;5006545;28;20219;-47
2023/10/15 02:22:00;;;;;;;474.57;196.50;;;;;;;;;;5004037;28;20191;-48
2023/10/15 02:24:26;;;;;;;415.37;163.70;;;;;;;;;;5007419;28;20246;-47
2023/10/15 02:26:51;;;;;;;533.30;230.07;;;;;;;;;;5003244;28;20220;-48
2023/10/15 02:29:34;;;;;;;417.00;166.47;;;;;;;;;;5005781;28;20208;-48
2023/10/15 02:32:08;;;;;;;500.83;209.30;;;;;;;;;;5004633;28;20612;-48
2023/10/15 02:34:40;;;;;;;470.60;185.33;;;;;;;;;;5009671;28;20176;-48
2023/10/15 02:37:10;;;;;;;524.10;217.00;;;;;;;;;;5006110;28;20266;-48
2023/10/15 02:39:39;;;;;;;513.87;213.53;;;;;;;;;;5006601;28;20333;-49
2023/10/15 02:42:05;;;;;;;531.53;220.17;;;;;;;;;;5007930;28;20182;-49
2023/10/15 02:44:33;;;;;;;422.30;162.80;;;;;;;;;;5011480;28;20273;-48
2023/10/15 02:49:53;;;;;;;461.27;182.00;;;;;;;;;;5008447;28;20345;-48
2023/10/15 02:52:19;;;;;;;451.03;176.47;;;;;;;;;;5008086;28;20519;-48
2023/10/15 02:54:46;;;;;;;460.47;181.03;;;;;;;;;;5009768;28;20172;-49
2023/10/15 02:57:16;;;;;;;480.83;188.50;;;;;;;;;;5009136;28;20601;-49
2023/10/15 02:59:51;;;;;;;438.43;176.47;;;;;;;;;;5008868;28;20200;-48
2023/10/15 03:02:18;;;;;;;513.53;214.50;;;;;;;;;;5001153;28;20176;-48
2023/10/15 03:04:49;;;;;;;508.03;199.80;;;;;;;;;;5009056;28;20199;-49
2023/10/15 03:07:31;;;;;;;451.70;174.80;;;;;;;;;;5008431;28;20184;-49
2023/10/15 03:09:57;;;;;;;480.73;192.10;;;;;;;;;;5011102;28;20269;-49
2023/10/15 03:12:24;;;;;;;552.57;235.33;;;;;;;;;;5010682;28;20177;-49
2023/10/15 03:14:54;;;;;;;462.50;181.10;;;;;;;;;;5007827;28;20195;-48
2023/10/15 03:17:29;;;;;;;469.50;184.50;;;;;;;;;;5011574;28;20180;-48
2023/10/15 03:19:55;;;;;;;526.07;220.07;;;;;;;;;;5003246;28;20220;-49
2023/10/15 03:22:24;;;;;;;486.17;197.03;;;;;;;;;;5006223;28;20291;-49
2023/10/15 03:24:56;;;;;;;449.73;175.77;;;;;;;;;;5011899;28;20191;-48
2023/10/15 03:27:26;;;;;;;530.67;220.60;;;;;;;;;;5002634;28;20198;-48
2023/10/15 03:29:56;;;;;;;454.23;175.03;;;;;;;;;;5004675;28;20211;-49
2023/10/15 03:32:27;;;;;;;442.63;171.53;;;;;;;;;;5012868;28;20283;-48
2023/10/15 03:37:45;;;;;;;481.03;191.33;;;;;;;;;;4974044;28;20562;-48
2023/10/15 03:40:13;;;;;;;468.47;192.57;;;;;;;;;;5012747;28;20203;-49
2023/10/15 03:42:40;;;;;;;535.20;230.90;;;;;;;;;;4996762;28;20395;-49
2023/10/15 03:45:09;;;;;;;486.23;204.23;;;;;;;;;;4997543;28;20195;-49
2023/10/15 03:47:46;;;;;;;437.57;172.33;;;;;;;;;;5008562;28;20982;-48
2023/10/15 03:50:15;;;;;;;524.73;224.77;;;;;;;;;;5006231;28;20254;-48
2023/10/15 03:52:44;;;;;;;452.83;175.57;;;;;;;;;;5007055;28;20628;-48
2023/10/15 03:55:10;;;;;;;470.93;193.47;;;;;;;;;;5003783;28;20366;-48
2023/10/15 03:57:36;;;;;;;455.70;181.27;;;;;;;;;;5013242;28;21337;-49
2023/10/15 04:00:15;;;;;;;499.20;209.40;;;;;;;;;;5005948;28;20271;-49
2023/10/15 04:03:08;;;;;;;448.33;178.80;;;;;;;;;;5007272;28;20664;-48
2023/10/15 04:05:34;;;;;;;487.57;193.23;;;;;;;;;;5005693;28;20176;-48
2023/10/15 04:08:00;;;;;;;505.13;211.67;;;;;;;;;;5008246;28;20180;-48
2023/10/15 04:10:35;;;;;;;480.57;192.70;;;;;;;;;;5006420;28;20559;-48
2023/10/15 04:13:01;;;;;;;482.83;193.20;;;;;;;;;;5005717;28;20172;-48
2023/10/15 04:15:30;;;;;;;449.83;173.33;;;;;;;;;;5005493;28;20268;-49
2023/10/15 04:17:56;;;;;;;455.27;182.13;;;;;;;;;;5011308;28;20701;-49
2023/10/15 04:20:35;;;;;;;444.07;174.57;;;;;;;;;;5010802;28;20211;-48
2023/10/15 04:23:01;;;;;;;486.43;201.47;;;;;;;;;;5002642;28;20191;-49
2023/10/15 04:25:32;;;;;;;451.33;175.43;;;;;;;;;;5009037;28;20411;-48
2023/10/15 04:28:08;;;;;;;455.23;179.87;;;;;;;;;;5005536;28;20303;-49
2023/10/15 04:30:42;;;;;;;430.27;167.27;;;;;;;;;;5003126;28;20215;-48
2023/10/15 04:33:11;;;;;;;464.03;183.23;;;;;;;;;;5002952;28;20195;-48
2023/10/15 04:35:37;;;;;;;472.03;187.30;;;;;;;;;;5008553;28;20269;-49
2023/10/15 04:38:07;;;;;;;517.90;213.87;;;;;;;;;;5004299;28;20185;-48
2023/10/15 04:41:00;;;;;;;434.00;173.40;;;;;;;;;;5005982;28;20265;-48
2023/10/15 04:43:27;;;;;;;441.07;177.13;;;;;;;;;;5006236;28;20500;-49
2023/10/15 04:46:02;;;;;;;495.20;203.87;;;;;;;;;;5006623;28;20684;-48
2023/10/15 04:48:33;;;;;;;470.17;182.77;;;;;;;;;;5010591;28;20193;-48
2023/10/15 04:51:04;;;;;;;467.93;190.17;;;;;;;;;;5000746;28;20217;-49
2023/10/15 04:53:31;;;;;;;427.57;166.67;;;;;;;;;;5006440;28;20651;-48
2023/10/15 04:55:59;;;;;;;431.17;165.63;;;;;;;;;;5010488;28;20195;-48
2023/10/15 04:58:27;;;;;;;432.93;167.37;;;;;;;;;;5006956;28;20271;-48
2023/10/15 05:00:54;;;;;;;484.73;192.63;;;;;;;;;;5010851;28;20192;-48
2023/10/15 05:03:21;;;;;;;477.97;190.77;;;;;;;;;;5004277;28;20265;-49
2023/10/15 05:05:47;;;;;;;468.67;184.33;;;;;;;;;;5006494;28;20559;-48
2023/10/15 05:08:13;;;;;;;464.43;185.07;;;;;;;;;;5000150;28;20272;-48
2023/10/15 05:10:50;;;;;;;452.27;176.83;;;;;;;;;;5006680;28;20208;-48
2023/10/15 05:13:16;;;;;;;485.43;202.20;;;;;;;;;;5001782;28;20176;-48
2023/10/15 05:15:44;;;;;;;465.13;186.00;;;;;;;;;;5004649;28;20291;-49
2023/10/15 05:18:10;;;;;;;436.63;174.50;;;;;;;;;;5010397;28;20241;-49
2023/10/15 05:20:36;;;;;;;484.03;193.87;;;;;;;;;;5005568;28;20506;-48
2023/10/15 05:23:03;;;;;;;517.73;214.03;;;;;;;;;;5005771;28;20192;-48
2023/10/15 05:25:29;;;;;;;440.37;175.67;;;;;;;;;;5004455;28;20181;-49
2023/10/15 05:27:55;;;;;;;463.03;183.73;;;;;;;;;;5008793;28;20199;-48
2023/10/15 05:30:21;;;;;;;461.17;179.23;;;;;;;;;;5011346;28;20242;-48
2023/10/15 05:32:48;;;;;;;413.20;154.20;;;;;;;;;;5032706;28;20188;-48
2023/10/15 05:35:17;;;;;;;407.90;155.93;;;;;;;;;;5032163;28;20538;-48
2023/10/15 05:37:44;;;;;;;440.47;168.30;;;;;;;;;;5027120;28;20374;-49
2023/10/15 05:40:12;;;;;;;429.37;165.13;;;;;;;;;;5029659;28;20237;-48
2023/10/15 05:42:37;;;;;;;438.77;169.27;;;;;;;;;;5028703;28;20276;-48
2023/10/15 05:45:06;;;;;;;430.03;160.47;;;;;;;;;;5043589;28;20673;-48
2023/10/15 05:47:32;;;;;;;418.93;158.90;;;;;;;;;;5022766;28;20691;-49
2023/10/15 05:49:58;;;;;;;413.33;157.30;;;;;;;;;;5039776;28;20205;-48
2023/10/15 05:52:25;;;;;;;425.10;161.00;;;;;;;;;;5030571;28;20290;-49
2023/10/15 05:54:53;;;;;;;390.27;150.03;;;;;;;;;;5028751;28;20233;-49
2023/10/15 05:57:21;;;;;;;438.70;171.20;;;;;;;;;;5029685;28;20184;-49
2023/10/15 05:59:47;;;;;;;418.63;163.47;;;;;;;;;;5029537;28;20613;-48
2023/10/15 06:02:13;;;;;;;428.80;162.97;;;;;;;;;;5027822;28;20246;-49
2023/10/15 06:04:39;;;;;;;417.10;159.50;;;;;;;;;;5025987;28;20187;-49
2023/10/15 06:07:05;;;;;;;413.67;158.40;;;;;;;;;;5027334;28;20207;-49
2023/10/15 06:09:31;;;;;;;398.03;150.83;;;;;;;;;;5025900;28;20229;-49
2023/10/15 06:11:57;;;;;;;415.43;160.33;;;;;;;;;;5023622;28;20826;-49
2023/10/15 06:14:23;;;;;;;407.30;156.53;;;;;;;;;;5026970;28;20226;-49
2023/10/15 06:16:53;;;;;;;421.20;156.87;;;;;;;;;;5027194;28;20286;-49
2023/10/15 06:19:19;;;;;;;443.03;168.37;;;;;;;;;;5029505;28;20246;-49
2023/10/15 06:21:45;;;;;;;454.73;181.47;;;;;;;;;;5028692;28;20929;-48
2023/10/15 06:24:11;;;;;;;405.03;157.93;;;;;;;;;;5027397;28;20697;-48
2023/10/15 06:26:38;;;;;;;407.43;155.83;;;;;;;;;;5028573;28;20630;-48
2023/10/15 06:29:04;;;;;;;410.97;162.23;;;;;;;;;;5024654;28;20203;-48
2023/10/15 06:31:30;;;;;;;412.67;157.63;;;;;;;;;;5030918;28;20670;-48
2023/10/15 06:33:56;;;;;;;425.23;164.23;;;;;;;;;;5026265;28;20180;-48
2023/10/15 06:36:22;;;;;;;413.30;158.10;;;;;;;;;;5027939;28;20185;-48
2023/10/15 06:38:51;;;;;;;422.70;161.60;;;;;;;;;;5022918;28;20575;-48
2023/10/15 06:41:18;;;;;;;381.50;152.53;;;;;;;;;;5024019;28;20204;-48
2023/10/15 06:43:44;;;;;;;399.50;159.33;;;;;;;;;;5033287;28;20207;-48
2023/10/15 06:46:10;;;;;;;405.60;160.87;;;;;;;;;;5025364;28;20184;-48
2023/10/15 06:48:37;;;;;;;425.67;160.67;;;;;;;;;;5030786;28;20176;-48
2023/10/15 06:51:07;;;;;;;395.23;153.37;;;;;;;;;;5030377;28;20212;-49
2023/10/15 06:53:33;;;;;;;443.10;167.50;;;;;;;;;;5035424;28;20263;-49
2023/10/15 06:55:59;;;;;;;448.80;171.10;;;;;;;;;;5030518;28;20647;-48
2023/10/15 06:58:26;;;;;;;445.67;168.73;;;;;;;;;;5037199;28;20578;-49
2023/10/15 07:00:56;;;;;;;451.73;170.87;;;;;;;;;;5034312;28;20474;-49
2023/10/15 07:03:23;;;;;;;442.47;169.07;;;;;;;;;;5025638;28;20648;-48
2023/10/15 07:05:49;;;;;;;422.57;160.17;;;;;;;;;;5027373;28;20203;-49
2023/10/15 07:08:15;;;;;;;417.97;162.83;;;;;;;;;;5025653;28;20219;-49
2023/10/15 07:10:41;;;;;;;433.97;173.37;;;;;;;;;;5029203;28;20646;-49
2023/10/15 07:13:07;;;;;;;452.30;178.07;;;;;;;;;;5022457;28;20189;-48
2023/10/15 07:15:40;;;;;;;440.60;171.10;;;;;;;;;;5026152;28;20187;-48
2023/10/15 07:18:06;;;;;;;426.90;165.57;;;;;;;;;;5030060;28;20185;-47
2023/10/15 07:20:32;;;;;;;425.87;169.10;;;;;;;;;;5032526;28;20215;-48
2023/10/15 07:23:02;;;;;;;431.63;173.97;;;;;;;;;;5036878;28;20577;-47
2023/10/15 07:25:28;;;;;;;454.40;182.90;;;;;;;;;;5030533;28;20183;-47
2023/10/15 07:27:55;;;;;;;417.37;163.50;;;;;;;;;;5036370;28;20272;-48
2023/10/15 07:30:22;;;;;;;435.17;168.60;;;;;;;;;;5031459;28;20208;-47
2023/10/15 07:32:50;;;;;;;431.10;164.10;;;;;;;;;;5029536;28;20690;-48
2023/10/15 07:35:16;;;;;;;429.33;167.23;;;;;;;;;;5039466;28;20183;-48
2023/10/15 07:37:46;;;;;;;446.57;171.87;;;;;;;;;;5024422;28;20185;-48
2023/10/15 07:40:16;;;;;;;444.17;171.93;;;;;;;;;;5029358;28;20235;-49
2023/10/15 07:42:43;;;;;;;443.60;172.23;;;;;;;;;;5032602;28;20179;-48
2023/10/15 07:45:09;;;;;;;422.23;165.07;;;;;;;;;;5029979;28;20251;-48
2023/10/15 07:47:37;;;;;;;430.50;163.57;;;;;;;;;;5035744;28;20175;-48
2023/10/15 07:50:03;;;;;;;452.90;176.23;;;;;;;;;;5028448;28;20200;-48
2023/10/15 07:52:29;;;;;;;465.93;187.13;;;;;;;;;;5029745;28;20329;-48
2023/10/15 07:54:55;;;;;;;456.90;179.23;;;;;;;;;;5032881;28;20678;-48
2023/10/15 07:57:21;;;;;;;417.37;158.13;;;;;;;;;;5016245;28;20193;-49
2023/10/15 07:59:47;;;;;;;421.50;162.13;;;;;;;;;;5019433;28;20199;-49
2023/10/15 08:02:13;;;;;;;429.30;169.83;;;;;;;;;;5044133;28;20596;-49
2023/10/15 08:04:40;;;;;;;403.10;157.90;;;;;;;;;;5031850;28;20184;-49
2023/10/15 08:07:08;;;;;;;447.30;171.40;;;;;;;;;;5027024;28;20180;-49
2023/10/15 08:09:34;;;;;;;444.43;170.73;;;;;;;;;;5026528;28;20196;-49
2023/10/15 08:12:00;;;;;;;440.03;168.27;;;;;;;;;;5026618;28;20289;-49
2023/10/15 08:14:26;;;;;;;408.70;158.97;;;;;;;;;;5026970;28;20183;-49
2023/10/15 08:16:53;;;;;;;422.93;164.53;;;;;;;;;;5027157;28;20665;-49
2023/10/15 08:19:20;;;;;;;401.40;153.47;;;;;;;;;;5027069;28;20220;-49
2023/10/15 08:21:46;;;;;;;440.37;172.53;;;;;;;;;;5039561;28;20233;-49
2023/10/15 08:24:15;;;;;;;418.30;159.37;;;;;;;;;;5045348;28;20223;-53
2023/10/15 08:26:41;;;;;;;435.13;167.13;;;;;;;;;;5030324;28;20187;-49
2023/10/15 08:29:09;;;;;;;424.40;163.43;;;;;;;;;;5046625;28;20757;-49
2023/10/15 08:31:35;;;;;;;424.17;165.20;;;;;;;;;;5030573;28;20203;-49
2023/10/15 08:34:02;;;;;;;462.20;182.63;;;;;;;;;;5031695;28;20203;-48
2023/10/15 08:36:28;;;;;;;431.97;162.93;;;;;;;;;;5046485;28;20195;-49
2023/10/15 08:38:54;;;;;;;401.10;156.03;;;;;;;;;;5033101;28;20567;-49
2023/10/15 08:41:21;;;;;;;390.43;149.10;;;;;;;;;;5034620;28;20188;-50
2023/10/15 08:43:49;;;;;;;415.17;159.93;;;;;;;;;;5035072;28;20326;-49
2023/10/15 08:46:18;;;;;;;431.77;165.80;;;;;;;;;;5030183;28;20184;-48
2023/10/15 08:48:45;;;;;;;426.37;164.00;;;;;;;;;;5025369;28;20291;-48
2023/10/15 08:51:13;;;;;;;428.20;167.53;;;;;;;;;;5043984;28;20208;-49
2023/10/15 08:53:41;;;;;;;420.47;159.53;;;;;;;;;;5030761;28;20176;-48
2023/10/15 08:56:07;;;;;;;418.07;159.73;;;;;;;;;;5042354;28;20194;-48
2023/10/15 08:58:34;;;;;;;421.50;162.87;;;;;;;;;;5041786;28;20259;-49
2023/10/15 09:01:01;;;;;;;418.87;162.30;;;;;;;;;;5038424;28;20188;-48
2023/10/15 09:03:28;;;;;;;416.07;160.27;;;;;;;;;;5031867;28;20203;-49
2023/10/15 09:05:54;;;;;;;405.20;156.73;;;;;;;;;;5030125;28;20191;-49
2023/10/15 09:08:20;;;;;;;402.90;152.40;;;;;;;;;;5027332;28;20691;-49
2023/10/15 09:10:47;;;;;;;407.73;164.53;;;;;;;;;;5036579;28;20316;-48
2023/10/15 09:13:18;;;;;;;409.37;158.80;;;;;;;;;;5047301;28;20187;-49
2023/10/15 09:15:44;;;;;;;421.97;167.53;;;;;;;;;;5032800;28;20187;-49
2023/10/15 09:18:11;;;;;;;415.03;160.30;;;;;;;;;;5028549;28;20614;-49
2023/10/15 09:20:40;;;;;;;415.30;161.77;;;;;;;;;;5035114;28;20199;-49
2023/10/15 09:23:06;;;;;;;423.00;163.93;;;;;;;;;;5035200;28;20225;-49
2023/10/15 09:25:32;;;;;;;317.80;126.53;;;;;;;;;;5042432;28;20556;-49
2023/10/15 09:27:59;;;;;;;324.53;128.60;;;;;;;;;;5035379;28;20307;-49
2023/10/15 09:30:25;;;;;;;337.17;135.10;;;;;;;;;;5039400;28;20215;-47
2023/10/15 09:32:52;;;;;;;322.13;127.57;;;;;;;;;;5035853;28;20176;-48
2023/10/15 09:35:18;;;;;;;330.23;131.33;;;;;;;;;;5028722;28;20180;-48
2023/10/15 09:37:44;;;;;;;325.70;129.43;;;;;;;;;;5044388;28;20177;-48
2023/10/15 09:40:20;;;;;;;323.80;128.47;;;;;;;;;;5031494;28;20689;-47
2023/10/15 09:42:53;;;;;;;329.80;131.77;;;;;;;;;;5036146;28;20191;-48
2023/10/15 09:45:19;;;;;;;326.47;129.57;;;;;;;;;;5036518;28;20532;-48
2023/10/15 09:47:48;;;;;;;327.27;130.30;;;;;;;;;;5034324;28;20606;-48
2023/10/15 09:50:24;;;;;;;325.23;132.47;;;;;;;;;;5033525;28;20193;-48
2023/10/15 09:52:56;;;;;;;324.47;131.43;;;;;;;;;;5034529;28;20230;-48
2023/10/15 09:55:28;;;;;;;323.60;132.27;;;;;;;;;;5034101;28;20184;-48
2023/10/15 09:57:55;;;;;;;318.23;126.90;;;;;;;;;;5036663;28;20180;-47
2023/10/15 10:03:37;;;;;;;330.80;134.20;;;;;;;;;;5039468;28;20386;-48
2023/10/15 10:06:12;;;;;;;424.33;163.73;;;;;;;;;;5038652;28;20176;-48
2023/10/15 10:08:38;;;;;;;426.27;165.27;;;;;;;;;;5034975;28;20618;-48
2023/10/15 10:11:10;;;;;;;422.33;164.20;;;;;;;;;;5031674;28;20239;-47
2023/10/15 10:13:39;;;;;;;430.17;168.93;;;;;;;;;;5023914;28;20215;-48
2023/10/15 10:16:10;;;;;;;428.43;169.43;;;;;;;;;;5024821;28;20755;-48
2023/10/15 10:18:37;;;;;;;465.00;189.83;;;;;;;;;;5033622;23;20231;-46
2023/10/15 10:21:11;;;;;;;435.37;171.17;;;;;;;;;;5001845;28;20548;-46
2023/10/15 10:23:37;;;;;;;489.00;207.07;;;;;;;;;;4998269;28;20384;-47
2023/10/15 10:26:12;;;;;;;495.53;206.63;;;;;;;;;;4987097;28;21621;-48
2023/10/15 10:28:37;;;;;;;519.00;225.87;;;;;;;;;;4994690;28;20185;-48
2023/10/15 10:31:06;;;;;;;499.03;209.87;;;;;;;;;;4991812;28;20328;-48
2023/10/15 10:33:44;;;;;;;560.77;253.87;;;;;;;;;;4990806;28;20471;-47
2023/10/15 10:36:14;;;;;;;419.97;167.60;;;;;;;;;;4986927;28;20252;-47
2023/10/15 10:38:40;;;;;;;458.80;192.83;;;;;;;;;;4995394;28;22864;-47
2023/10/15 10:41:12;;;;;;;448.10;184.47;;;;;;;;;;5001922;28;20524;-47
2023/10/15 10:43:42;;;;;;;479.77;203.07;;;;;;;;;;4990488;28;20181;-47
2023/10/15 10:46:19;;;;;;;434.13;173.70;;;;;;;;;;5003032;28;20196;-47
2023/10/15 10:49:01;;;;;;;438.23;183.73;;;;;;;;;;4997005;28;20395;-47
2023/10/15 10:51:30;;;;;;;470.07;198.77;;;;;;;;;;4997679;28;20298;-47
2023/10/15 10:53:56;;;;;;;502.63;218.70;;;;;;;;;;4993997;28;20623;-47
2023/10/15 10:56:41;;;;;;;476.93;199.73;;;;;;;;;;4985797;28;20207;-47
2023/10/15 10:59:07;;;;;;;477.40;204.53;;;;;;;;;;4982689;28;20204;-47
2023/10/15 11:01:33;;;;;;;461.90;192.70;;;;;;;;;;4997712;28;20728;-47
2023/10/15 11:03:59;;;;;;;431.03;179.07;;;;;;;;;;4993623;28;20184;-47
2023/10/15 11:06:26;;;;;;;495.43;211.27;;;;;;;;;;4989953;28;20655;-47
2023/10/15 11:08:52;;;;;;;440.37;177.87;;;;;;;;;;4992744;28;20217;-47
2023/10/15 11:11:19;;;;;;;492.07;211.03;;;;;;;;;;4975607;28;20265;-46
2023/10/15 11:13:46;;;;;;;481.47;209.70;;;;;;;;;;4977686;28;20487;-47
2023/10/15 11:16:12;;;;;;;480.93;204.90;;;;;;;;;;4995899;28;20562;-47
2023/10/15 11:18:40;;;;;;;526.93;232.50;;;;;;;;;;4984012;28;20205;-47
2023/10/15 11:21:07;;;;;;;560.00;255.90;;;;;;;;;;4984079;28;20275;-47
2023/10/15 11:23:33;;;;;;;465.20;194.70;;;;;;;;;;4988860;28;20195;-47
2023/10/15 11:25:59;;;;;;;512.47;221.43;;;;;;;;;;4980646;28;20196;-47
2023/10/15 11:28:25;;;;;;;439.90;179.93;;;;;;;;;;4986525;28;20184;-47
2023/10/15 11:30:53;;;;;;;461.37;184.60;;;;;;;;;;4995486;28;20298;-48
2023/10/15 11:33:19;;;;;;;469.80;191.33;;;;;;;;;;4990244;28;20189;-47
2023/10/15 11:35:48;;;;;;;482.23;201.73;;;;;;;;;;4986952;28;20177;-47
2023/10/15 11:38:14;;;;;;;453.03;189.23;;;;;;;;;;4984625;28;20192;-47
2023/10/15 11:40:41;;;;;;;491.53;215.17;;;;;;;;;;4997758;28;20204;-47
2023/10/15 11:43:14;;;;;;;478.07;202.80;;;;;;;;;;4993559;28;20199;-48
2023/10/15 11:45:41;;;;;;;489.13;201.97;;;;;;;;;;4993671;28;20200;-47
2023/10/15 11:48:11;;;;;;;475.07;195.80;;;;;;;;;;4995665;28;20193;-48
2023/10/15 11:50:40;;;;;;;521.10;220.43;;;;;;;;;;4996489;28;20873;-47
2023/10/15 11:53:06;;;;;;;478.93;203.43;;;;;;;;;;4988889;28;20177;-47
2023/10/15 11:55:34;;;;;;;535.63;240.77;;;;;;;;;;4987221;28;20242;-47
2023/10/15 11:58:10;;;;;;;456.23;186.57;;;;;;;;;;4979535;28;20258;-47
2023/10/15 12:00:39;;;;;;;502.80;212.30;;;;;;;;;;4982049;28;20244;-47
2023/10/15 12:03:06;;;;;;;449.07;184.60;;;;;;;;;;5002591;28;20534;-47
2023/10/15 12:05:35;;;;;;;458.80;185.63;;;;;;;;;;4982267;28;20193;-47
2023/10/15 12:08:03;;;;;;;493.87;208.07;;;;;;;;;;4988266;28;20651;-47
2023/10/15 12:10:29;;;;;;;533.17;234.57;;;;;;;;;;4979293;28;20242;-47
2023/10/15 12:12:55;;;;;;;510.40;218.50;;;;;;;;;;4988160;28;20180;-47
2023/10/15 12:15:21;;;;;;;553.37;241.13;;;;;;;;;;4985760;28;20273;-47
2023/10/15 12:17:47;;;;;;;573.13;254.77;;;;;;;;;;4967156;28;20192;-47
2023/10/15 12:20:13;;;;;;;485.40;204.43;;;;;;;;;;4969403;28;20637;-48
2023/10/15 12:22:39;;;;;;;514.77;219.13;;;;;;;;;;4990296;28;20422;-47
2023/10/15 12:25:06;;;;;;;485.00;204.47;;;;;;;;;;4978055;28;20300;-47
2023/10/15 12:27:32;;;;;;;515.47;218.67;;;;;;;;;;4965961;28;20603;-47
2023/10/15 12:30:03;;;;;;;497.00;204.70;;;;;;;;;;4957284;28;20223;-47
2023/10/15 12:32:29;;;;;;;515.10;218.23;;;;;;;;;;4974563;28;20679;-47
2023/10/15 12:34:55;;;;;;;571.47;262.93;;;;;;;;;;4976852;28;20177;-47
2023/10/15 12:37:26;;;;;;;471.13;199.20;;;;;;;;;;4988564;28;20199;-47
2023/10/15 12:39:52;;;;;;;544.70;236.17;;;;;;;;;;4985090;28;20309;-47
2023/10/15 12:42:21;;;;;;;493.00;203.53;;;;;;;;;;4983222;28;20660;-47
2023/10/15 12:44:47;;;;;;;502.63;207.70;;;;;;;;;;4983346;28;20644;-47
2023/10/15 12:47:14;;;;;;;519.63;221.60;;;;;;;;;;4986702;28;20599;-47
2023/10/15 12:49:40;;;;;;;451.27;180.10;;;;;;;;;;4989267;28;20210;-47
2023/10/15 12:52:08;;;;;;;468.87;187.27;;;;;;;;;;4991613;28;20359;-47
2023/10/15 12:54:34;;;;;;;467.13;187.97;;;;;;;;;;4986372;28;20188;-47
2023/10/15 12:57:00;;;;;;;463.47;184.80;;;;;;;;;;4989309;28;20184;-47
2023/10/15 12:59:26;;;;;;;506.23;213.60;;;;;;;;;;4988666;28;20254;-48
2023/10/15 13:01:52;;;;;;;493.87;203.90;;;;;;;;;;4992119;28;20197;-47
2023/10/15 13:04:21;;;;;;;442.80;177.73;;;;;;;;;;4991146;28;20684;-47
2023/10/15 13:06:47;;;;;;;461.60;196.10;;;;;;;;;;4992420;28;20195;-48
2023/10/15 13:09:19;;;;;;;498.23;210.03;;;;;;;;;;4983392;28;20745;-47
2023/10/15 13:11:48;;;;;;;521.77;234.67;;;;;;;;;;4989788;28;20228;-47
2023/10/15 13:14:14;;;;;;;484.53;207.23;;;;;;;;;;4990863;28;20667;-47
2023/10/15 13:16:40;;;;;;;460.53;185.80;;;;;;;;;;4987498;28;20177;-47
2023/10/15 13:19:06;;;;;;;507.43;217.90;;;;;;;;;;4985554;28;20606;-47
2023/10/15 13:21:32;;;;;;;493.93;209.17;;;;;;;;;;4988612;28;20525;-47
2023/10/15 13:23:58;;;;;;;570.90;268.73;;;;;;;;;;4962950;28;20196;-47
2023/10/15 13:26:24;;;;;;;555.70;253.20;;;;;;;;;;4971499;28;20196;-48
2023/10/15 13:28:53;;;;;;;488.07;203.60;;;;;;;;;;4982069;28;20295;-47
2023/10/15 13:31:19;;;;;;;445.33;185.70;;;;;;;;;;4983879;28;20537;-48
2023/10/15 13:33:45;;;;;;;521.43;241.17;;;;;;;;;;4985997;28;20189;-48
2023/10/15 13:36:13;;;;;;;502.73;223.03;;;;;;;;;;4987922;28;20303;-47
2023/10/15 13:38:41;;;;;;;477.17;214.53;;;;;;;;;;4991586;28;20648;-48
2023/10/15 13:41:08;;;;;;;464.80;205.30;;;;;;;;;;4995344;28;20223;-48
2023/10/15 13:43:35;;;;;;;491.33;225.23;;;;;;;;;;4989508;28;20195;-48
2023/10/15 13:46:01;;;;;;;511.50;247.47;;;;;;;;;;4985488;28;20272;-48
2023/10/15 13:48:27;;;;;;;492.80;240.40;;;;;;;;;;4995319;28;20552;-48
2023/10/15 13:50:53;;;;;;;536.03;262.70;;;;;;;;;;4991075;28;20223;-48
2023/10/15 13:53:19;;;;;;;516.47;254.53;;;;;;;;;;4985688;28;20487;-48
2023/10/15 13:55:45;;;;;;;466.70;230.80;;;;;;;;;;4994521;28;20168;-48
2023/10/15 13:58:11;;;;;;;451.07;214.60;;;;;;;;;;4993072;28;20533;-48
2023/10/15 14:00:37;;;;;;;465.73;227.67;;;;;;;;;;4989494;28;20212;-48
2023/10/15 14:03:04;;;;;;;559.83;279.93;;;;;;;;;;4986337;28;20182;-48
2023/10/15 14:05:32;;;;;;;506.27;248.17;;;;;;;;;;4984221;28;20231;-46
2023/10/15 14:07:59;;;;;;;521.33;267.90;;;;;;;;;;4991444;28;20181;-46
2023/10/15 14:10:26;;;;;;;503.20;256.97;;;;;;;;;;4998101;28;20234;-46
2023/10/15 14:12:51;;;;;;;538.63;284.07;;;;;;;;;;4985872;28;20196;-47
2023/10/15 14:15:18;;;;;;;438.63;221.23;;;;;;;;;;4995398;28;20181;-47